sensor_id;sensor_type;location;lat;lon;timestamp;P1;durP1;ratioP1;P2;durP2;ratioP2
84244;SDS011;74383;44.552;18.100;2024-01-15T00:01:28;200.93;;;70.50;;
84244;SDS011;74383;44.552;18.100;2024-01-15T00:03:54;179.02;;;65.45;;
84244;SDS011;74383;44.552;18.100;2024-01-15T00:06:20;171.05;;;64.15;;
84244;SDS011;74383;44.552;18.100;2024-01-15T00:08:46;156.30;;;59.92;;
84244;SDS011;74383;44.552;18.100;2024-01-15T00:11:11;151.88;;;58.15;;
84244;SDS011;74383;44.552;18.100;2024-01-15T00:13:37;195.00;;;68.50;;
84244;SDS011;74383;44.552;18.100;2024-01-15T00:16:03;197.88;;;71.38;;
84244;SDS011;74383;44.552;18.100;2024-01-15T00:18:29;151.82;;;60.28;;
84244;SDS011;74383;44.552;18.100;2024-01-15T00:20:55;145.63;;;60.33;;
84244;SDS011;74383;44.552;18.100;2024-01-15T00:23:20;165.23;;;58.65;;
84244;SDS011;74383;44.552;18.100;2024-01-15T00:25:46;216.07;;;73.45;;
84244;SDS011;74383;44.552;18.100;2024-01-15T00:28:11;184.13;;;65.05;;
84244;SDS011;74383;44.552;18.100;2024-01-15T00:30:37;178.32;;;67.55;;
84244;SDS011;74383;44.552;18.100;2024-01-15T00:33:02;201.15;;;68.03;;
84244;SDS011;74383;44.552;18.100;2024-01-15T00:35:28;188.30;;;67.40;;
84244;SDS011;74383;44.552;18.100;2024-01-15T00:37:54;195.55;;;70.07;;
84244;SDS011;74383;44.552;18.100;2024-01-15T00:40:19;170.32;;;67.43;;
84244;SDS011;74383;44.552;18.100;2024-01-15T00:42:45;184.95;;;69.68;;
84244;SDS011;74383;44.552;18.100;2024-01-15T00:45:10;193.18;;;65.35;;
84244;SDS011;74383;44.552;18.100;2024-01-15T00:47:36;184.88;;;65.38;;
84244;SDS011;74383;44.552;18.100;2024-01-15T00:50:01;166.43;;;64.47;;
84244;SDS011;74383;44.552;18.100;2024-01-15T00:52:27;173.35;;;60.45;;
84244;SDS011;74383;44.552;18.100;2024-01-15T00:54:52;156.88;;;58.92;;
84244;SDS011;74383;44.552;18.100;2024-01-15T00:57:18;143.00;;;54.25;;
84244;SDS011;74383;44.552;18.100;2024-01-15T00:59:44;144.43;;;53.28;;
84244;SDS011;74383;44.552;18.100;2024-01-15T01:02:10;150.88;;;52.92;;
84244;SDS011;74383;44.552;18.100;2024-01-15T01:04:35;156.90;;;54.65;;
84244;SDS011;74383;44.552;18.100;2024-01-15T01:07:01;138.80;;;55.30;;
84244;SDS011;74383;44.552;18.100;2024-01-15T01:09:27;156.10;;;52.70;;
84244;SDS011;74383;44.552;18.100;2024-01-15T01:11:55;166.27;;;55.83;;
84244;SDS011;74383;44.552;18.100;2024-01-15T01:14:21;164.52;;;58.53;;
84244;SDS011;74383;44.552;18.100;2024-01-15T01:16:47;177.45;;;59.97;;
84244;SDS011;74383;44.552;18.100;2024-01-15T01:19:12;154.20;;;53.70;;
84244;SDS011;74383;44.552;18.100;2024-01-15T01:21:38;166.20;;;53.60;;
84244;SDS011;74383;44.552;18.100;2024-01-15T01:24:03;148.18;;;52.03;;
84244;SDS011;74383;44.552;18.100;2024-01-15T01:26:30;152.43;;;54.45;;
84244;SDS011;74383;44.552;18.100;2024-01-15T01:28:55;155.10;;;52.25;;
84244;SDS011;74383;44.552;18.100;2024-01-15T01:31:21;152.77;;;51.47;;
84244;SDS011;74383;44.552;18.100;2024-01-15T01:33:46;150.75;;;50.72;;
84244;SDS011;74383;44.552;18.100;2024-01-15T01:36:12;148.48;;;50.75;;
84244;SDS011;74383;44.552;18.100;2024-01-15T01:38:38;148.70;;;52.42;;
84244;SDS011;74383;44.552;18.100;2024-01-15T01:41:05;137.93;;;50.97;;
84244;SDS011;74383;44.552;18.100;2024-01-15T01:43:31;148.65;;;53.90;;
84244;SDS011;74383;44.552;18.100;2024-01-15T01:45:56;158.82;;;50.83;;
84244;SDS011;74383;44.552;18.100;2024-01-15T01:48:25;144.38;;;50.78;;
84244;SDS011;74383;44.552;18.100;2024-01-15T01:50:55;134.15;;;47.20;;
84244;SDS011;74383;44.552;18.100;2024-01-15T01:53:23;131.55;;;47.10;;
84244;SDS011;74383;44.552;18.100;2024-01-15T01:55:49;135.63;;;46.45;;
84244;SDS011;74383;44.552;18.100;2024-01-15T01:58:16;134.77;;;46.67;;
84244;SDS011;74383;44.552;18.100;2024-01-15T02:00:42;127.43;;;45.72;;
84244;SDS011;74383;44.552;18.100;2024-01-15T02:03:08;111.22;;;42.83;;
84244;SDS011;74383;44.552;18.100;2024-01-15T02:05:34;121.60;;;44.00;;
84244;SDS011;74383;44.552;18.100;2024-01-15T02:08:00;123.20;;;44.22;;
84244;SDS011;74383;44.552;18.100;2024-01-15T02:10:26;117.57;;;46.10;;
84244;SDS011;74383;44.552;18.100;2024-01-15T02:12:51;120.07;;;46.35;;
84244;SDS011;74383;44.552;18.100;2024-01-15T02:15:17;132.88;;;46.47;;
84244;SDS011;74383;44.552;18.100;2024-01-15T02:17:58;161.02;;;51.65;;
84244;SDS011;74383;44.552;18.100;2024-01-15T02:20:25;195.93;;;63.60;;
84244;SDS011;74383;44.552;18.100;2024-01-15T02:22:51;169.23;;;54.70;;
84244;SDS011;74383;44.552;18.100;2024-01-15T02:25:17;169.27;;;58.38;;
84244;SDS011;74383;44.552;18.100;2024-01-15T02:27:43;146.30;;;49.47;;
84244;SDS011;74383;44.552;18.100;2024-01-15T02:30:11;151.93;;;51.45;;
84244;SDS011;74383;44.552;18.100;2024-01-15T02:32:38;155.93;;;52.17;;
84244;SDS011;74383;44.552;18.100;2024-01-15T02:35:04;148.57;;;52.05;;
84244;SDS011;74383;44.552;18.100;2024-01-15T02:37:30;148.90;;;51.95;;
84244;SDS011;74383;44.552;18.100;2024-01-15T02:39:55;150.48;;;51.60;;
84244;SDS011;74383;44.552;18.100;2024-01-15T02:42:21;151.25;;;52.05;;
84244;SDS011;74383;44.552;18.100;2024-01-15T02:44:46;137.68;;;52.30;;
84244;SDS011;74383;44.552;18.100;2024-01-15T02:47:13;144.98;;;55.55;;
84244;SDS011;74383;44.552;18.100;2024-01-15T02:49:39;154.60;;;56.88;;
84244;SDS011;74383;44.552;18.100;2024-01-15T02:52:05;150.25;;;55.20;;
84244;SDS011;74383;44.552;18.100;2024-01-15T02:54:30;150.98;;;53.90;;
84244;SDS011;74383;44.552;18.100;2024-01-15T02:56:56;150.40;;;54.30;;
84244;SDS011;74383;44.552;18.100;2024-01-15T02:59:22;156.10;;;54.53;;
84244;SDS011;74383;44.552;18.100;2024-01-15T03:01:47;146.88;;;53.85;;
84244;SDS011;74383;44.552;18.100;2024-01-15T03:04:13;158.07;;;57.70;;
84244;SDS011;74383;44.552;18.100;2024-01-15T03:06:38;157.32;;;58.75;;
84244;SDS011;74383;44.552;18.100;2024-01-15T03:09:04;134.75;;;51.13;;
84244;SDS011;74383;44.552;18.100;2024-01-15T03:11:36;130.85;;;48.70;;
84244;SDS011;74383;44.552;18.100;2024-01-15T03:14:02;142.00;;;54.00;;
84244;SDS011;74383;44.552;18.100;2024-01-15T03:16:27;140.32;;;51.65;;
84244;SDS011;74383;44.552;18.100;2024-01-15T03:18:53;127.03;;;48.47;;
84244;SDS011;74383;44.552;18.100;2024-01-15T03:21:18;126.00;;;48.88;;
84244;SDS011;74383;44.552;18.100;2024-01-15T03:23:44;134.60;;;48.42;;
84244;SDS011;74383;44.552;18.100;2024-01-15T03:26:09;136.23;;;49.40;;
84244;SDS011;74383;44.552;18.100;2024-01-15T03:28:35;133.75;;;51.58;;
84244;SDS011;74383;44.552;18.100;2024-01-15T03:31:00;123.93;;;48.15;;
84244;SDS011;74383;44.552;18.100;2024-01-15T03:33:26;135.85;;;48.47;;
84244;SDS011;74383;44.552;18.100;2024-01-15T03:35:51;107.82;;;41.88;;
84244;SDS011;74383;44.552;18.100;2024-01-15T03:38:17;106.90;;;43.05;;
84244;SDS011;74383;44.552;18.100;2024-01-15T03:40:42;134.50;;;47.83;;
84244;SDS011;74383;44.552;18.100;2024-01-15T03:43:08;137.50;;;48.95;;
84244;SDS011;74383;44.552;18.100;2024-01-15T03:45:33;137.45;;;48.35;;
84244;SDS011;74383;44.552;18.100;2024-01-15T03:47:59;115.95;;;45.90;;
84244;SDS011;74383;44.552;18.100;2024-01-15T03:50:24;138.43;;;45.85;;
84244;SDS011;74383;44.552;18.100;2024-01-15T03:52:50;121.30;;;48.35;;
84244;SDS011;74383;44.552;18.100;2024-01-15T03:55:16;123.53;;;45.50;;
84244;SDS011;74383;44.552;18.100;2024-01-15T03:57:41;115.20;;;45.10;;
84244;SDS011;74383;44.552;18.100;2024-01-15T04:00:07;119.63;;;44.20;;
84244;SDS011;74383;44.552;18.100;2024-01-15T04:02:33;119.90;;;45.22;;
84244;SDS011;74383;44.552;18.100;2024-01-15T04:04:58;110.32;;;44.03;;
84244;SDS011;74383;44.552;18.100;2024-01-15T04:07:24;118.70;;;44.35;;
84244;SDS011;74383;44.552;18.100;2024-01-15T04:09:49;122.15;;;43.78;;
84244;SDS011;74383;44.552;18.100;2024-01-15T04:12:14;124.68;;;46.22;;
84244;SDS011;74383;44.552;18.100;2024-01-15T04:14:40;111.53;;;44.25;;
84244;SDS011;74383;44.552;18.100;2024-01-15T04:17:06;113.82;;;43.40;;
84244;SDS011;74383;44.552;18.100;2024-01-15T04:19:31;122.47;;;45.67;;
84244;SDS011;74383;44.552;18.100;2024-01-15T04:21:56;120.68;;;45.22;;
84244;SDS011;74383;44.552;18.100;2024-01-15T04:24:22;117.78;;;46.33;;
84244;SDS011;74383;44.552;18.100;2024-01-15T04:26:48;105.60;;;41.00;;
84244;SDS011;74383;44.552;18.100;2024-01-15T04:29:13;117.68;;;46.42;;
84244;SDS011;74383;44.552;18.100;2024-01-15T04:31:39;116.25;;;44.95;;
84244;SDS011;74383;44.552;18.100;2024-01-15T04:34:04;122.18;;;48.70;;
84244;SDS011;74383;44.552;18.100;2024-01-15T04:36:30;133.75;;;49.97;;
84244;SDS011;74383;44.552;18.100;2024-01-15T04:38:55;132.50;;;49.10;;
84244;SDS011;74383;44.552;18.100;2024-01-15T04:41:21;212.82;;;81.00;;
84244;SDS011;74383;44.552;18.100;2024-01-15T04:43:46;174.70;;;68.72;;
84244;SDS011;74383;44.552;18.100;2024-01-15T04:46:12;153.60;;;60.85;;
84244;SDS011;74383;44.552;18.100;2024-01-15T04:48:37;171.93;;;64.82;;
84244;SDS011;74383;44.552;18.100;2024-01-15T04:51:08;183.60;;;73.28;;
84244;SDS011;74383;44.552;18.100;2024-01-15T04:53:34;179.98;;;80.57;;
84244;SDS011;74383;44.552;18.100;2024-01-15T04:56:00;162.23;;;69.00;;
84244;SDS011;74383;44.552;18.100;2024-01-15T04:58:25;155.23;;;60.22;;
84244;SDS011;74383;44.552;18.100;2024-01-15T05:00:52;159.48;;;62.28;;
84244;SDS011;74383;44.552;18.100;2024-01-15T05:03:19;170.15;;;67.28;;
84244;SDS011;74383;44.552;18.100;2024-01-15T05:05:45;175.70;;;69.63;;
84244;SDS011;74383;44.552;18.100;2024-01-15T05:08:10;169.23;;;66.90;;
84244;SDS011;74383;44.552;18.100;2024-01-15T05:10:36;176.85;;;69.22;;
84244;SDS011;74383;44.552;18.100;2024-01-15T05:13:02;171.93;;;67.10;;
84244;SDS011;74383;44.552;18.100;2024-01-15T05:15:28;176.45;;;69.10;;
84244;SDS011;74383;44.552;18.100;2024-01-15T05:17:53;166.75;;;68.65;;
84244;SDS011;74383;44.552;18.100;2024-01-15T05:20:18;163.77;;;67.38;;
84244;SDS011;74383;44.552;18.100;2024-01-15T05:22:44;148.85;;;58.90;;
84244;SDS011;74383;44.552;18.100;2024-01-15T05:25:09;157.18;;;62.13;;
84244;SDS011;74383;44.552;18.100;2024-01-15T05:27:35;156.32;;;61.30;;
84244;SDS011;74383;44.552;18.100;2024-01-15T05:30:00;146.65;;;62.47;;
84244;SDS011;74383;44.552;18.100;2024-01-15T05:32:26;161.80;;;66.72;;
84244;SDS011;74383;44.552;18.100;2024-01-15T05:34:51;183.48;;;73.03;;
84244;SDS011;74383;44.552;18.100;2024-01-15T05:37:17;184.40;;;78.80;;
84244;SDS011;74383;44.552;18.100;2024-01-15T05:39:42;176.45;;;77.32;;
84244;SDS011;74383;44.552;18.100;2024-01-15T05:42:08;181.15;;;76.65;;
84244;SDS011;74383;44.552;18.100;2024-01-15T05:44:33;166.45;;;71.20;;
84244;SDS011;74383;44.552;18.100;2024-01-15T05:46:59;162.05;;;69.00;;
84244;SDS011;74383;44.552;18.100;2024-01-15T05:49:24;182.23;;;70.75;;
84244;SDS011;74383;44.552;18.100;2024-01-15T05:51:50;168.80;;;72.68;;
84244;SDS011;74383;44.552;18.100;2024-01-15T05:54:17;212.10;;;89.30;;
84244;SDS011;74383;44.552;18.100;2024-01-15T05:56:44;191.52;;;81.78;;
84244;SDS011;74383;44.552;18.100;2024-01-15T05:59:10;199.23;;;79.07;;
84244;SDS011;74383;44.552;18.100;2024-01-15T06:01:36;200.30;;;78.55;;
84244;SDS011;74383;44.552;18.100;2024-01-15T06:04:01;196.05;;;81.78;;
84244;SDS011;74383;44.552;18.100;2024-01-15T06:06:27;187.70;;;76.00;;
84244;SDS011;74383;44.552;18.100;2024-01-15T06:08:52;184.75;;;79.15;;
84244;SDS011;74383;44.552;18.100;2024-01-15T06:11:18;210.75;;;85.82;;
84244;SDS011;74383;44.552;18.100;2024-01-15T06:13:44;259.52;;;115.00;;
84244;SDS011;74383;44.552;18.100;2024-01-15T06:16:15;237.30;;;107.57;;
84244;SDS011;74383;44.552;18.100;2024-01-15T06:18:45;231.98;;;97.47;;
84244;SDS011;74383;44.552;18.100;2024-01-15T06:21:11;222.35;;;96.05;;
84244;SDS011;74383;44.552;18.100;2024-01-15T06:23:37;219.40;;;97.43;;
84244;SDS011;74383;44.552;18.100;2024-01-15T06:26:03;304.25;;;121.90;;
84244;SDS011;74383;44.552;18.100;2024-01-15T06:28:29;303.30;;;122.57;;
84244;SDS011;74383;44.552;18.100;2024-01-15T06:30:55;273.90;;;116.05;;
84244;SDS011;74383;44.552;18.100;2024-01-15T06:33:20;284.60;;;111.00;;
84244;SDS011;74383;44.552;18.100;2024-01-15T06:35:46;264.20;;;113.03;;
84244;SDS011;74383;44.552;18.100;2024-01-15T06:38:11;275.80;;;114.38;;
84244;SDS011;74383;44.552;18.100;2024-01-15T06:40:37;306.77;;;128.90;;
84244;SDS011;74383;44.552;18.100;2024-01-15T06:43:02;275.77;;;122.20;;
84244;SDS011;74383;44.552;18.100;2024-01-15T06:45:28;253.38;;;116.25;;
84244;SDS011;74383;44.552;18.100;2024-01-15T06:47:53;258.23;;;115.50;;
84244;SDS011;74383;44.552;18.100;2024-01-15T06:50:19;288.40;;;123.88;;
84244;SDS011;74383;44.552;18.100;2024-01-15T06:52:44;283.92;;;121.43;;
84244;SDS011;74383;44.552;18.100;2024-01-15T06:55:10;326.27;;;136.15;;
84244;SDS011;74383;44.552;18.100;2024-01-15T06:57:35;320.65;;;139.88;;
84244;SDS011;74383;44.552;18.100;2024-01-15T07:00:01;273.13;;;123.35;;
84244;SDS011;74383;44.552;18.100;2024-01-15T07:02:28;207.15;;;96.50;;
84244;SDS011;74383;44.552;18.100;2024-01-15T07:04:53;245.32;;;115.03;;
84244;SDS011;74383;44.552;18.100;2024-01-15T07:07:19;233.13;;;108.18;;
84244;SDS011;74383;44.552;18.100;2024-01-15T07:09:44;351.52;;;145.82;;
84244;SDS011;74383;44.552;18.100;2024-01-15T07:12:10;310.30;;;132.98;;
84244;SDS011;74383;44.552;18.100;2024-01-15T07:14:35;374.67;;;162.60;;
84244;SDS011;74383;44.552;18.100;2024-01-15T07:17:01;398.60;;;168.55;;
84244;SDS011;74383;44.552;18.100;2024-01-15T07:19:26;362.88;;;167.38;;
84244;SDS011;74383;44.552;18.100;2024-01-15T07:21:52;333.80;;;155.60;;
84244;SDS011;74383;44.552;18.100;2024-01-15T07:24:18;373.63;;;170.13;;
84244;SDS011;74383;44.552;18.100;2024-01-15T07:26:43;360.98;;;155.70;;
84244;SDS011;74383;44.552;18.100;2024-01-15T07:29:09;372.95;;;159.60;;
84244;SDS011;74383;44.552;18.100;2024-01-15T07:31:35;375.05;;;159.80;;
84244;SDS011;74383;44.552;18.100;2024-01-15T07:34:00;374.98;;;154.90;;
84244;SDS011;74383;44.552;18.100;2024-01-15T07:36:26;372.40;;;164.38;;
84244;SDS011;74383;44.552;18.100;2024-01-15T07:38:51;395.90;;;171.43;;
84244;SDS011;74383;44.552;18.100;2024-01-15T07:41:17;392.25;;;167.30;;
84244;SDS011;74383;44.552;18.100;2024-01-15T07:43:42;476.25;;;233.88;;
84244;SDS011;74383;44.552;18.100;2024-01-15T07:46:08;383.65;;;171.43;;
84244;SDS011;74383;44.552;18.100;2024-01-15T07:48:34;417.40;;;199.13;;
84244;SDS011;74383;44.552;18.100;2024-01-15T07:50:59;389.52;;;182.95;;
84244;SDS011;74383;44.552;18.100;2024-01-15T07:53:25;258.33;;;123.43;;
84244;SDS011;74383;44.552;18.100;2024-01-15T07:55:51;214.43;;;109.72;;
84244;SDS011;74383;44.552;18.100;2024-01-15T07:58:16;299.23;;;144.63;;
84244;SDS011;74383;44.552;18.100;2024-01-15T08:00:42;359.77;;;181.50;;
84244;SDS011;74383;44.552;18.100;2024-01-15T08:03:07;417.08;;;209.70;;
84244;SDS011;74383;44.552;18.100;2024-01-15T08:05:33;418.17;;;207.52;;
84244;SDS011;74383;44.552;18.100;2024-01-15T08:07:58;440.77;;;211.18;;
84244;SDS011;74383;44.552;18.100;2024-01-15T08:10:24;441.77;;;219.90;;
84244;SDS011;74383;44.552;18.100;2024-01-15T08:12:49;255.05;;;127.90;;
84244;SDS011;74383;44.552;18.100;2024-01-15T08:15:15;252.68;;;118.53;;
84244;SDS011;74383;44.552;18.100;2024-01-15T08:17:40;366.98;;;175.32;;
84244;SDS011;74383;44.552;18.100;2024-01-15T08:20:06;351.80;;;164.73;;
84244;SDS011;74383;44.552;18.100;2024-01-15T08:22:32;343.75;;;169.95;;
84244;SDS011;74383;44.552;18.100;2024-01-15T08:24:57;345.48;;;173.60;;
84244;SDS011;74383;44.552;18.100;2024-01-15T08:27:23;319.05;;;156.98;;
84244;SDS011;74383;44.552;18.100;2024-01-15T08:29:48;326.33;;;165.75;;
84244;SDS011;74383;44.552;18.100;2024-01-15T08:32:14;366.15;;;182.38;;
84244;SDS011;74383;44.552;18.100;2024-01-15T08:34:40;363.45;;;173.68;;
84244;SDS011;74383;44.552;18.100;2024-01-15T08:37:07;341.88;;;169.85;;
84244;SDS011;74383;44.552;18.100;2024-01-15T08:39:33;334.02;;;173.00;;
84244;SDS011;74383;44.552;18.100;2024-01-15T08:41:58;330.40;;;167.95;;
84244;SDS011;74383;44.552;18.100;2024-01-15T08:44:24;412.58;;;190.68;;
84244;SDS011;74383;44.552;18.100;2024-01-15T08:46:49;237.45;;;121.28;;
84244;SDS011;74383;44.552;18.100;2024-01-15T08:49:14;195.52;;;103.50;;
84244;SDS011;74383;44.552;18.100;2024-01-15T08:51:40;274.90;;;135.02;;
84244;SDS011;74383;44.552;18.100;2024-01-15T08:54:06;267.20;;;130.55;;
84244;SDS011;74383;44.552;18.100;2024-01-15T08:56:33;281.48;;;142.45;;
84244;SDS011;74383;44.552;18.100;2024-01-15T08:58:59;284.50;;;144.95;;
84244;SDS011;74383;44.552;18.100;2024-01-15T09:01:24;275.35;;;148.30;;
84244;SDS011;74383;44.552;18.100;2024-01-15T09:03:50;276.40;;;152.13;;
84244;SDS011;74383;44.552;18.100;2024-01-15T09:06:16;253.05;;;135.10;;
84244;SDS011;74383;44.552;18.100;2024-01-15T09:08:42;356.90;;;166.75;;
84244;SDS011;74383;44.552;18.100;2024-01-15T09:11:07;373.17;;;169.05;;
84244;SDS011;74383;44.552;18.100;2024-01-15T09:13:33;365.85;;;166.30;;
84244;SDS011;74383;44.552;18.100;2024-01-15T09:15:58;367.38;;;171.40;;
84244;SDS011;74383;44.552;18.100;2024-01-15T09:18:25;353.42;;;170.68;;
84244;SDS011;74383;44.552;18.100;2024-01-15T09:20:50;322.67;;;158.40;;
84244;SDS011;74383;44.552;18.100;2024-01-15T09:23:16;396.80;;;211.68;;
84244;SDS011;74383;44.552;18.100;2024-01-15T09:25:41;316.90;;;179.18;;
84244;SDS011;74383;44.552;18.100;2024-01-15T09:28:07;290.63;;;150.52;;
84244;SDS011;74383;44.552;18.100;2024-01-15T09:30:33;262.23;;;143.80;;
84244;SDS011;74383;44.552;18.100;2024-01-15T09:32:58;255.35;;;139.95;;
84244;SDS011;74383;44.552;18.100;2024-01-15T09:35:24;264.27;;;145.93;;
84244;SDS011;74383;44.552;18.100;2024-01-15T09:37:50;303.45;;;160.23;;
84244;SDS011;74383;44.552;18.100;2024-01-15T09:40:15;269.20;;;148.85;;
84244;SDS011;74383;44.552;18.100;2024-01-15T09:42:42;286.13;;;160.02;;
84244;SDS011;74383;44.552;18.100;2024-01-15T09:45:08;311.45;;;173.63;;
84244;SDS011;74383;44.552;18.100;2024-01-15T09:47:35;341.67;;;203.38;;
84244;SDS011;74383;44.552;18.100;2024-01-15T09:50:02;332.42;;;198.23;;
84244;SDS011;74383;44.552;18.100;2024-01-15T09:52:29;379.35;;;217.45;;
84244;SDS011;74383;44.552;18.100;2024-01-15T09:54:59;378.75;;;224.07;;
84244;SDS011;74383;44.552;18.100;2024-01-15T09:57:28;377.70;;;224.73;;
84244;SDS011;74383;44.552;18.100;2024-01-15T09:59:54;369.98;;;222.73;;
84244;SDS011;74383;44.552;18.100;2024-01-15T10:02:23;314.90;;;180.63;;
84244;SDS011;74383;44.552;18.100;2024-01-15T10:04:49;289.05;;;165.00;;
84244;SDS011;74383;44.552;18.100;2024-01-15T10:07:15;250.20;;;138.50;;
84244;SDS011;74383;44.552;18.100;2024-01-15T10:09:44;251.65;;;138.30;;
84244;SDS011;74383;44.552;18.100;2024-01-15T10:12:11;267.38;;;148.02;;
84244;SDS011;74383;44.552;18.100;2024-01-15T10:14:37;277.63;;;162.60;;
84244;SDS011;74383;44.552;18.100;2024-01-15T10:17:24;340.23;;;201.25;;
84244;SDS011;74383;44.552;18.100;2024-01-15T10:19:51;351.60;;;200.40;;
84244;SDS011;74383;44.552;18.100;2024-01-15T10:22:16;277.88;;;150.60;;
84244;SDS011;74383;44.552;18.100;2024-01-15T10:24:45;250.38;;;138.75;;
84244;SDS011;74383;44.552;18.100;2024-01-15T10:27:14;258.05;;;141.40;;
84244;SDS011;74383;44.552;18.100;2024-01-15T10:29:41;235.18;;;134.02;;
84244;SDS011;74383;44.552;18.100;2024-01-15T10:32:07;241.73;;;135.57;;
84244;SDS011;74383;44.552;18.100;2024-01-15T10:34:40;237.60;;;131.65;;
84244;SDS011;74383;44.552;18.100;2024-01-15T10:37:09;248.20;;;136.57;;
84244;SDS011;74383;44.552;18.100;2024-01-15T10:39:35;238.18;;;136.25;;
84244;SDS011;74383;44.552;18.100;2024-01-15T10:42:02;210.35;;;119.60;;
84244;SDS011;74383;44.552;18.100;2024-01-15T10:44:28;194.98;;;111.05;;
84244;SDS011;74383;44.552;18.100;2024-01-15T10:46:55;180.65;;;102.95;;
84244;SDS011;74383;44.552;18.100;2024-01-15T10:49:21;179.18;;;102.20;;
84244;SDS011;74383;44.552;18.100;2024-01-15T10:51:51;197.82;;;111.22;;
84244;SDS011;74383;44.552;18.100;2024-01-15T10:54:19;179.65;;;104.40;;
84244;SDS011;74383;44.552;18.100;2024-01-15T10:56:45;201.07;;;118.10;;
84244;SDS011;74383;44.552;18.100;2024-01-15T10:59:12;209.60;;;116.90;;
84244;SDS011;74383;44.552;18.100;2024-01-15T11:01:38;204.63;;;115.43;;
84244;SDS011;74383;44.552;18.100;2024-01-15T11:04:04;214.32;;;120.55;;
84244;SDS011;74383;44.552;18.100;2024-01-15T11:06:40;208.15;;;120.07;;
84244;SDS011;74383;44.552;18.100;2024-01-15T11:09:08;193.57;;;111.95;;
84244;SDS011;74383;44.552;18.100;2024-01-15T11:11:40;194.13;;;114.63;;
84244;SDS011;74383;44.552;18.100;2024-01-15T11:14:06;195.25;;;115.07;;
84244;SDS011;74383;44.552;18.100;2024-01-15T11:17:15;188.88;;;113.70;;
84244;SDS011;74383;44.552;18.100;2024-01-15T11:19:21;206.82;;;117.55;;
84244;SDS011;74383;44.552;18.100;2024-01-15T11:21:47;203.68;;;118.63;;
84244;SDS011;74383;44.552;18.100;2024-01-15T11:24:32;210.60;;;121.70;;
84244;SDS011;74383;44.552;18.100;2024-01-15T11:27:07;179.55;;;107.90;;
84244;SDS011;74383;44.552;18.100;2024-01-15T11:29:34;187.48;;;114.35;;
84244;SDS011;74383;44.552;18.100;2024-01-15T11:32:04;197.27;;;116.75;;
84244;SDS011;74383;44.552;18.100;2024-01-15T11:34:50;182.75;;;104.38;;
84244;SDS011;74383;44.552;18.100;2024-01-15T11:37:24;174.10;;;105.10;;
84244;SDS011;74383;44.552;18.100;2024-01-15T11:39:51;193.20;;;115.30;;
84244;SDS011;74383;44.552;18.100;2024-01-15T11:42:19;180.43;;;108.13;;
84244;SDS011;74383;44.552;18.100;2024-01-15T11:44:46;210.45;;;123.57;;
84244;SDS011;74383;44.552;18.100;2024-01-15T11:47:11;285.27;;;162.68;;
84244;SDS011;74383;44.552;18.100;2024-01-15T11:52:26;295.60;;;170.15;;
84244;SDS011;74383;44.552;18.100;2024-01-15T11:57:37;235.52;;;138.52;;
84244;SDS011;74383;44.552;18.100;2024-01-15T12:00:05;314.30;;;178.20;;
84244;SDS011;74383;44.552;18.100;2024-01-15T12:02:44;335.57;;;198.50;;
84244;SDS011;74383;44.552;18.100;2024-01-15T12:05:11;279.92;;;168.60;;
84244;SDS011;74383;44.552;18.100;2024-01-15T12:07:39;263.00;;;154.30;;
84244;SDS011;74383;44.552;18.100;2024-01-15T12:10:14;280.45;;;160.30;;
84244;SDS011;74383;44.552;18.100;2024-01-15T12:15:20;375.45;;;223.35;;
84244;SDS011;74383;44.552;18.100;2024-01-15T12:17:46;392.92;;;241.68;;
84244;SDS011;74383;44.552;18.100;2024-01-15T12:20:12;390.15;;;233.18;;
84244;SDS011;74383;44.552;18.100;2024-01-15T12:22:38;433.77;;;261.90;;
84244;SDS011;74383;44.552;18.100;2024-01-15T12:25:04;403.63;;;240.85;;
84244;SDS011;74383;44.552;18.100;2024-01-15T12:27:30;378.45;;;230.98;;
84244;SDS011;74383;44.552;18.100;2024-01-15T12:29:57;397.77;;;246.27;;
84244;SDS011;74383;44.552;18.100;2024-01-15T12:32:24;275.25;;;157.65;;
84244;SDS011;74383;44.552;18.100;2024-01-15T12:34:50;266.38;;;146.60;;
84244;SDS011;74383;44.552;18.100;2024-01-15T12:37:18;236.43;;;126.60;;
84244;SDS011;74383;44.552;18.100;2024-01-15T12:39:44;313.23;;;154.57;;
84244;SDS011;74383;44.552;18.100;2024-01-15T12:42:10;308.65;;;154.57;;
84244;SDS011;74383;44.552;18.100;2024-01-15T12:44:36;266.17;;;149.20;;
84244;SDS011;74383;44.552;18.100;2024-01-15T12:47:12;291.13;;;166.05;;
84244;SDS011;74383;44.552;18.100;2024-01-15T12:49:39;328.08;;;191.15;;
84244;SDS011;74383;44.552;18.100;2024-01-15T12:52:07;357.73;;;212.13;;
84244;SDS011;74383;44.552;18.100;2024-01-15T12:54:35;363.73;;;216.02;;
84244;SDS011;74383;44.552;18.100;2024-01-15T12:57:00;391.02;;;228.63;;
84244;SDS011;74383;44.552;18.100;2024-01-15T12:59:26;302.52;;;176.57;;
84244;SDS011;74383;44.552;18.100;2024-01-15T13:01:52;323.90;;;186.20;;
84244;SDS011;74383;44.552;18.100;2024-01-15T13:04:21;300.58;;;175.90;;
84244;SDS011;74383;44.552;18.100;2024-01-15T13:06:49;322.98;;;192.75;;
84244;SDS011;74383;44.552;18.100;2024-01-15T13:09:15;303.50;;;181.68;;
84244;SDS011;74383;44.552;18.100;2024-01-15T13:11:42;301.65;;;178.88;;
84244;SDS011;74383;44.552;18.100;2024-01-15T13:14:11;301.88;;;183.05;;
84244;SDS011;74383;44.552;18.100;2024-01-15T13:16:39;288.00;;;167.98;;
84244;SDS011;74383;44.552;18.100;2024-01-15T13:19:07;353.67;;;212.88;;
84244;SDS011;74383;44.552;18.100;2024-01-15T13:21:33;376.85;;;226.13;;
84244;SDS011;74383;44.552;18.100;2024-01-15T13:23:59;327.38;;;203.45;;
84244;SDS011;74383;44.552;18.100;2024-01-15T13:26:25;315.15;;;194.35;;
84244;SDS011;74383;44.552;18.100;2024-01-15T13:28:50;343.48;;;208.80;;
84244;SDS011;74383;44.552;18.100;2024-01-15T13:31:16;344.95;;;216.77;;
84244;SDS011;74383;44.552;18.100;2024-01-15T13:33:42;337.40;;;211.90;;
84244;SDS011;74383;44.552;18.100;2024-01-15T13:36:07;316.27;;;197.15;;
84244;SDS011;74383;44.552;18.100;2024-01-15T13:38:38;303.33;;;189.18;;
84244;SDS011;74383;44.552;18.100;2024-01-15T13:41:04;309.52;;;194.93;;
84244;SDS011;74383;44.552;18.100;2024-01-15T13:43:31;293.80;;;184.57;;
84244;SDS011;74383;44.552;18.100;2024-01-15T13:45:56;310.55;;;193.48;;
84244;SDS011;74383;44.552;18.100;2024-01-15T13:48:22;334.30;;;205.02;;
84244;SDS011;74383;44.552;18.100;2024-01-15T13:50:48;282.65;;;173.82;;
84244;SDS011;74383;44.552;18.100;2024-01-15T13:53:16;286.95;;;176.52;;
84244;SDS011;74383;44.552;18.100;2024-01-15T13:55:42;363.90;;;226.35;;